sensor_id;sensor_type;location;lat;lon;timestamp;temperature;humidity
79187;SHT31;68762;51.980;5.646;2023-08-01T00:01:40;19.3;74.1
79187;SHT31;68762;51.980;5.646;2023-08-01T00:04:08;19.2;73.9
79187;SHT31;68762;51.980;5.646;2023-08-01T00:06:36;19.2;73.5
79187;SHT31;68762;51.980;5.646;2023-08-01T00:09:05;19.2;73.8
79187;SHT31;68762;51.980;5.646;2023-08-01T00:11:33;19.2;74.1
79187;SHT31;68762;51.980;5.646;2023-08-01T00:14:02;19.2;74.1
79187;SHT31;68762;51.980;5.646;2023-08-01T00:16:31;19.2;74.5
79187;SHT31;68762;51.980;5.646;2023-08-01T00:19:01;19.2;74.7
79187;SHT31;68762;51.980;5.646;2023-08-01T00:21:30;19.1;74.8
79187;SHT31;68762;51.980;5.646;2023-08-01T00:23:59;19.1;75.3
79187;SHT31;68762;51.980;5.646;2023-08-01T00:26:28;19.1;75.3
79187;SHT31;68762;51.980;5.646;2023-08-01T00:28:56;19.1;75.6
79187;SHT31;68762;51.980;5.646;2023-08-01T00:31:25;19.1;75.6
79187;SHT31;68762;51.980;5.646;2023-08-01T00:33:54;19.1;75.5
79187;SHT31;68762;51.980;5.646;2023-08-01T00:36:22;19.1;75.6
79187;SHT31;68762;51.980;5.646;2023-08-01T00:38:51;19.1;75.7
79187;SHT31;68762;51.980;5.646;2023-08-01T00:41:19;19.1;75.6
79187;SHT31;68762;51.980;5.646;2023-08-01T00:43:48;19.1;75.6
79187;SHT31;68762;51.980;5.646;2023-08-01T00:46:16;19.1;75.7
79187;SHT31;68762;51.980;5.646;2023-08-01T00:48:47;19.1;76.1
79187;SHT31;68762;51.980;5.646;2023-08-01T00:51:18;19.1;76.2
79187;SHT31;68762;51.980;5.646;2023-08-01T00:53:49;19.1;75.9
79187;SHT31;68762;51.980;5.646;2023-08-01T00:56:18;19.2;75.9
79187;SHT31;68762;51.980;5.646;2023-08-01T00:58:47;19.2;75.7
79187;SHT31;68762;51.980;5.646;2023-08-01T01:01:15;19.2;75.4
79187;SHT31;68762;51.980;5.646;2023-08-01T01:03:46;19.2;75.3
79187;SHT31;68762;51.980;5.646;2023-08-01T01:06:22;19.2;74.9
79187;SHT31;68762;51.980;5.646;2023-08-01T01:08:52;19.2;74.5
79187;SHT31;68762;51.980;5.646;2023-08-01T01:11:23;19.1;75.0
79187;SHT31;68762;51.980;5.646;2023-08-01T01:13:52;19.1;74.8
79187;SHT31;68762;51.980;5.646;2023-08-01T01:16:21;19.1;75.1
79187;SHT31;68762;51.980;5.646;2023-08-01T01:18:49;19.1;75.2
79187;SHT31;68762;51.980;5.646;2023-08-01T01:21:20;19.1;75.4
79187;SHT31;68762;51.980;5.646;2023-08-01T01:23:49;19.0;75.7
79187;SHT31;68762;51.980;5.646;2023-08-01T01:26:21;19.0;75.8
79187;SHT31;68762;51.980;5.646;2023-08-01T01:28:51;19.0;75.7
79187;SHT31;68762;51.980;5.646;2023-08-01T01:31:19;19.0;75.6
79187;SHT31;68762;51.980;5.646;2023-08-01T01:33:49;19.0;75.6
79187;SHT31;68762;51.980;5.646;2023-08-01T01:36:18;19.0;75.5
79187;SHT31;68762;51.980;5.646;2023-08-01T01:38:46;19.0;75.5
79187;SHT31;68762;51.980;5.646;2023-08-01T01:41:14;19.0;75.3
79187;SHT31;68762;51.980;5.646;2023-08-01T01:43:45;19.0;75.2
79187;SHT31;68762;51.980;5.646;2023-08-01T01:46:13;19.0;74.9
79187;SHT31;68762;51.980;5.646;2023-08-01T01:48:42;19.0;74.9
79187;SHT31;68762;51.980;5.646;2023-08-01T01:51:10;19.0;74.7
79187;SHT31;68762;51.980;5.646;2023-08-01T01:53:38;18.9;74.6
79187;SHT31;68762;51.980;5.646;2023-08-01T01:56:09;18.9;74.7
79187;SHT31;68762;51.980;5.646;2023-08-01T01:58:37;18.9;74.7
79187;SHT31;68762;51.980;5.646;2023-08-01T02:01:05;18.9;74.6
79187;SHT31;68762;51.980;5.646;2023-08-01T02:03:34;18.9;74.7
79187;SHT31;68762;51.980;5.646;2023-08-01T02:06:03;18.8;74.8
79187;SHT31;68762;51.980;5.646;2023-08-01T02:08:31;18.8;74.9
79187;SHT31;68762;51.980;5.646;2023-08-01T02:11:00;18.8;74.8
79187;SHT31;68762;51.980;5.646;2023-08-01T02:13:31;18.8;74.9
79187;SHT31;68762;51.980;5.646;2023-08-01T02:15:59;18.8;75.0
79187;SHT31;68762;51.980;5.646;2023-08-01T02:18:28;18.8;74.9
79187;SHT31;68762;51.980;5.646;2023-08-01T02:20:56;18.8;75.1
79187;SHT31;68762;51.980;5.646;2023-08-01T02:23:24;18.7;75.0
79187;SHT31;68762;51.980;5.646;2023-08-01T02:25:55;18.7;74.9
79187;SHT31;68762;51.980;5.646;2023-08-01T02:28:23;18.7;75.0
79187;SHT31;68762;51.980;5.646;2023-08-01T02:30:52;18.7;75.1
79187;SHT31;68762;51.980;5.646;2023-08-01T02:33:20;18.7;75.2
79187;SHT31;68762;51.980;5.646;2023-08-01T02:35:51;18.7;75.2
79187;SHT31;68762;51.980;5.646;2023-08-01T02:38:19;18.6;75.3
79187;SHT31;68762;51.980;5.646;2023-08-01T02:40:48;18.6;75.2
79187;SHT31;68762;51.980;5.646;2023-08-01T02:43:16;18.6;75.2
79187;SHT31;68762;51.980;5.646;2023-08-01T02:45:45;18.6;75.2
79187;SHT31;68762;51.980;5.646;2023-08-01T02:48:14;18.6;75.2
79187;SHT31;68762;51.980;5.646;2023-08-01T02:50:42;18.6;75.5
79187;SHT31;68762;51.980;5.646;2023-08-01T02:53:12;18.6;75.6
79187;SHT31;68762;51.980;5.646;2023-08-01T02:55:41;18.5;75.7
79187;SHT31;68762;51.980;5.646;2023-08-01T02:58:12;18.5;75.9
79187;SHT31;68762;51.980;5.646;2023-08-01T03:00:40;18.5;76.0
79187;SHT31;68762;51.980;5.646;2023-08-01T03:03:09;18.5;76.1
79187;SHT31;68762;51.980;5.646;2023-08-01T03:05:37;18.5;76.4
79187;SHT31;68762;51.980;5.646;2023-08-01T03:08:08;18.5;76.6
79187;SHT31;68762;51.980;5.646;2023-08-01T03:10:36;18.5;76.7
79187;SHT31;68762;51.980;5.646;2023-08-01T03:13:05;18.5;76.8
79187;SHT31;68762;51.980;5.646;2023-08-01T03:15:33;18.5;76.8
79187;SHT31;68762;51.980;5.646;2023-08-01T03:18:02;18.5;76.8
79187;SHT31;68762;51.980;5.646;2023-08-01T03:20:30;18.5;77.0
79187;SHT31;68762;51.980;5.646;2023-08-01T03:22:59;18.5;77.1
79187;SHT31;68762;51.980;5.646;2023-08-01T03:25:27;18.5;77.2
79187;SHT31;68762;51.980;5.646;2023-08-01T03:27:56;18.5;77.2
79187;SHT31;68762;51.980;5.646;2023-08-01T03:30:25;18.5;77.2
79187;SHT31;68762;51.980;5.646;2023-08-01T03:32:53;18.5;77.1
79187;SHT31;68762;51.980;5.646;2023-08-01T03:35:22;18.5;77.1
79187;SHT31;68762;51.980;5.646;2023-08-01T03:37:50;18.5;76.9
79187;SHT31;68762;51.980;5.646;2023-08-01T03:40:19;18.5;77.0
79187;SHT31;68762;51.980;5.646;2023-08-01T03:42:48;18.5;76.8
79187;SHT31;68762;51.980;5.646;2023-08-01T03:45:16;18.5;77.0
79187;SHT31;68762;51.980;5.646;2023-08-01T03:47:44;18.5;77.1
79187;SHT31;68762;51.980;5.646;2023-08-01T03:50:15;18.5;77.1
79187;SHT31;68762;51.980;5.646;2023-08-01T03:52:43;18.5;76.9
79187;SHT31;68762;51.980;5.646;2023-08-01T03:55:12;18.5;77.0
79187;SHT31;68762;51.980;5.646;2023-08-01T03:57:41;18.5;77.1
79187;SHT31;68762;51.980;5.646;2023-08-01T04:00:10;18.5;77.1
79187;SHT31;68762;51.980;5.646;2023-08-01T04:02:39;18.5;77.0
79187;SHT31;68762;51.980;5.646;2023-08-01T04:05:09;18.5;76.9
79187;SHT31;68762;51.980;5.646;2023-08-01T04:07:39;18.5;77.1
79187;SHT31;68762;51.980;5.646;2023-08-01T04:10:08;18.5;77.1
79187;SHT31;68762;51.980;5.646;2023-08-01T04:12:36;18.5;76.9
79187;SHT31;68762;51.980;5.646;2023-08-01T04:15:06;18.5;76.9
79187;SHT31;68762;51.980;5.646;2023-08-01T04:17:34;18.5;77.0
79187;SHT31;68762;51.980;5.646;2023-08-01T04:20:03;18.5;77.2
79187;SHT31;68762;51.980;5.646;2023-08-01T04:22:31;18.5;77.2
79187;SHT31;68762;51.980;5.646;2023-08-01T04:25:00;18.5;77.2
79187;SHT31;68762;51.980;5.646;2023-08-01T04:27:29;18.5;77.3
79187;SHT31;68762;51.980;5.646;2023-08-01T04:30:00;18.5;77.3
79187;SHT31;68762;51.980;5.646;2023-08-01T04:32:28;18.5;77.1
79187;SHT31;68762;51.980;5.646;2023-08-01T04:34:57;18.5;76.9
79187;SHT31;68762;51.980;5.646;2023-08-01T04:37:25;18.5;76.9
79187;SHT31;68762;51.980;5.646;2023-08-01T04:39:56;18.5;76.9
79187;SHT31;68762;51.980;5.646;2023-08-01T04:42:24;18.5;76.9
79187;SHT31;68762;51.980;5.646;2023-08-01T04:44:53;18.5;76.8
79187;SHT31;68762;51.980;5.646;2023-08-01T04:47:21;18.5;76.9
79187;SHT31;68762;51.980;5.646;2023-08-01T04:49:50;18.5;77.0
79187;SHT31;68762;51.980;5.646;2023-08-01T04:52:18;18.5;76.9
79187;SHT31;68762;51.980;5.646;2023-08-01T04:54:47;18.5;76.7
79187;SHT31;68762;51.980;5.646;2023-08-01T04:57:15;18.5;76.9
79187;SHT31;68762;51.980;5.646;2023-08-01T04:59:44;18.5;77.1
79187;SHT31;68762;51.980;5.646;2023-08-01T05:02:12;18.5;76.9
79187;SHT31;68762;51.980;5.646;2023-08-01T05:04:42;18.5;77.0
79187;SHT31;68762;51.980;5.646;2023-08-01T05:07:11;18.5;76.8
79187;SHT31;68762;51.980;5.646;2023-08-01T05:09:39;18.5;76.8
79187;SHT31;68762;51.980;5.646;2023-08-01T05:12:08;18.5;77.0
79187;SHT31;68762;51.980;5.646;2023-08-01T05:14:37;18.6;76.9
79187;SHT31;68762;51.980;5.646;2023-08-01T05:17:06;18.6;76.5
79187;SHT31;68762;51.980;5.646;2023-08-01T05:19:35;18.6;76.5
79187;SHT31;68762;51.980;5.646;2023-08-01T05:22:04;18.6;76.3
79187;SHT31;68762;51.980;5.646;2023-08-01T05:24:32;18.6;76.6
79187;SHT31;68762;51.980;5.646;2023-08-01T05:27:01;18.6;76.6
79187;SHT31;68762;51.980;5.646;2023-08-01T05:29:29;18.6;76.9
79187;SHT31;68762;51.980;5.646;2023-08-01T05:31:58;18.6;76.9
79187;SHT31;68762;51.980;5.646;2023-08-01T05:34:26;18.7;76.8
79187;SHT31;68762;51.980;5.646;2023-08-01T05:36:55;18.7;76.8
79187;SHT31;68762;51.980;5.646;2023-08-01T05:39:23;18.7;77.1
79187;SHT31;68762;51.980;5.646;2023-08-01T05:41:53;18.7;77.0
79187;SHT31;68762;51.980;5.646;2023-08-01T05:44:21;18.7;77.1
79187;SHT31;68762;51.980;5.646;2023-08-01T05:46:50;18.7;77.7
79187;SHT31;68762;51.980;5.646;2023-08-01T05:49:18;18.7;77.9
79187;SHT31;68762;51.980;5.646;2023-08-01T05:51:47;18.7;77.8
79187;SHT31;68762;51.980;5.646;2023-08-01T05:54:15;18.7;77.6
79187;SHT31;68762;51.980;5.646;2023-08-01T05:56:45;18.8;77.2
79187;SHT31;68762;51.980;5.646;2023-08-01T05:59:14;18.8;77.5
79187;SHT31;68762;51.980;5.646;2023-08-01T06:01:42;18.8;77.3
79187;SHT31;68762;51.980;5.646;2023-08-01T06:04:11;18.8;76.7
79187;SHT31;68762;51.980;5.646;2023-08-01T06:06:39;18.9;76.9
79187;SHT31;68762;51.980;5.646;2023-08-01T06:09:08;18.9;76.6
79187;SHT31;68762;51.980;5.646;2023-08-01T06:11:36;18.9;76.7
79187;SHT31;68762;51.980;5.646;2023-08-01T06:14:05;18.9;76.4
79187;SHT31;68762;51.980;5.646;2023-08-01T06:16:33;18.9;76.2
79187;SHT31;68762;51.980;5.646;2023-08-01T06:19:02;18.9;76.6
79187;SHT31;68762;51.980;5.646;2023-08-01T06:21:30;18.9;76.3
79187;SHT31;68762;51.980;5.646;2023-08-01T06:23:59;19.0;76.1
79187;SHT31;68762;51.980;5.646;2023-08-01T06:26:28;19.0;75.6
79187;SHT31;68762;51.980;5.646;2023-08-01T06:28:56;19.0;75.9
79187;SHT31;68762;51.980;5.646;2023-08-01T06:31:25;19.0;76.1
79187;SHT31;68762;51.980;5.646;2023-08-01T06:33:54;19.0;76.1
79187;SHT31;68762;51.980;5.646;2023-08-01T06:36:24;19.0;75.6
79187;SHT31;68762;51.980;5.646;2023-08-01T06:38:52;19.1;75.6
79187;SHT31;68762;51.980;5.646;2023-08-01T06:41:21;19.1;74.8
79187;SHT31;68762;51.980;5.646;2023-08-01T06:43:49;19.1;74.8
79187;SHT31;68762;51.980;5.646;2023-08-01T06:46:18;19.1;74.8
79187;SHT31;68762;51.980;5.646;2023-08-01T06:48:46;19.1;74.9
79187;SHT31;68762;51.980;5.646;2023-08-01T06:51:15;19.1;75.1
79187;SHT31;68762;51.980;5.646;2023-08-01T06:53:43;19.1;75.1
79187;SHT31;68762;51.980;5.646;2023-08-01T06:56:12;19.2;74.8
79187;SHT31;68762;51.980;5.646;2023-08-01T06:58:41;19.2;75.0
79187;SHT31;68762;51.980;5.646;2023-08-01T07:01:09;19.2;75.3
79187;SHT31;68762;51.980;5.646;2023-08-01T07:03:39;19.2;75.2
79187;SHT31;68762;51.980;5.646;2023-08-01T07:06:08;19.3;74.9
79187;SHT31;68762;51.980;5.646;2023-08-01T07:08:37;19.3;74.7
79187;SHT31;68762;51.980;5.646;2023-08-01T07:11:05;19.3;74.7
79187;SHT31;68762;51.980;5.646;2023-08-01T07:13:34;19.4;73.8
79187;SHT31;68762;51.980;5.646;2023-08-01T07:16:02;19.4;73.4
79187;SHT31;68762;51.980;5.646;2023-08-01T07:18:31;19.5;73.5
79187;SHT31;68762;51.980;5.646;2023-08-01T07:21:04;19.5;73.2
79187;SHT31;68762;51.980;5.646;2023-08-01T07:23:34;19.6;72.1
79187;SHT31;68762;51.980;5.646;2023-08-01T07:26:05;19.6;71.9
79187;SHT31;68762;51.980;5.646;2023-08-01T07:28:33;19.6;71.9
79187;SHT31;68762;51.980;5.646;2023-08-01T07:31:04;19.7;71.9
79187;SHT31;68762;51.980;5.646;2023-08-01T07:33:34;19.7;71.4
79187;SHT31;68762;51.980;5.646;2023-08-01T07:36:03;19.8;69.8
79187;SHT31;68762;51.980;5.646;2023-08-01T07:38:32;19.8;70.3
79187;SHT31;68762;51.980;5.646;2023-08-01T07:41:04;19.8;70.0
79187;SHT31;68762;51.980;5.646;2023-08-01T07:43:33;19.9;69.9
79187;SHT31;68762;51.980;5.646;2023-08-01T07:46:04;19.9;69.4
79187;SHT31;68762;51.980;5.646;2023-08-01T07:48:35;19.9;68.7
79187;SHT31;68762;51.980;5.646;2023-08-01T07:51:03;20.0;67.7
79187;SHT31;68762;51.980;5.646;2023-08-01T07:53:34;20.0;68.7
79187;SHT31;68762;51.980;5.646;2023-08-01T07:56:03;20.0;66.9
79187;SHT31;68762;51.980;5.646;2023-08-01T07:58:34;20.0;67.5
79187;SHT31;68762;51.980;5.646;2023-08-01T08:01:06;20.0;67.2
79187;SHT31;68762;51.980;5.646;2023-08-01T08:03:37;20.0;67.3
79187;SHT31;68762;51.980;5.646;2023-08-01T08:06:05;20.0;68.2
79187;SHT31;68762;51.980;5.646;2023-08-01T08:08:34;20.0;68.1
79187;SHT31;68762;51.980;5.646;2023-08-01T08:11:03;20.0;68.4
79187;SHT31;68762;51.980;5.646;2023-08-01T08:13:32;20.0;69.1
79187;SHT31;68762;51.980;5.646;2023-08-01T08:16:00;19.9;68.4
79187;SHT31;68762;51.980;5.646;2023-08-01T08:18:30;19.9;68.6
79187;SHT31;68762;51.980;5.646;2023-08-01T08:21:01;20.0;67.8
79187;SHT31;68762;51.980;5.646;2023-08-01T08:23:30;20.0;69.0
79187;SHT31;68762;51.980;5.646;2023-08-01T08:25:58;20.0;70.1
79187;SHT31;68762;51.980;5.646;2023-08-01T08:28:31;20.1;69.4
79187;SHT31;68762;51.980;5.646;2023-08-01T08:31:00;20.1;68.3
79187;SHT31;68762;51.980;5.646;2023-08-01T08:33:30;20.2;70.7
79187;SHT31;68762;51.980;5.646;2023-08-01T08:35:59;20.3;67.7
79187;SHT31;68762;51.980;5.646;2023-08-01T08:38:28;20.3;67.2
79187;SHT31;68762;51.980;5.646;2023-08-01T08:41:08;20.4;65.8
79187;SHT31;68762;51.980;5.646;2023-08-01T08:43:37;20.5;66.7
79187;SHT31;68762;51.980;5.646;2023-08-01T08:46:05;20.5;65.5
79187;SHT31;68762;51.980;5.646;2023-08-01T08:48:35;20.5;65.1
79187;SHT31;68762;51.980;5.646;2023-08-01T08:51:06;20.6;66.2
79187;SHT31;68762;51.980;5.646;2023-08-01T08:53:36;20.6;64.4
79187;SHT31;68762;51.980;5.646;2023-08-01T08:56:08;20.7;66.2
79187;SHT31;68762;51.980;5.646;2023-08-01T08:58:37;20.7;67.8
79187;SHT31;68762;51.980;5.646;2023-08-01T09:01:09;20.8;64.0
79187;SHT31;68762;51.980;5.646;2023-08-01T09:03:38;20.8;64.3
79187;SHT31;68762;51.980;5.646;2023-08-01T09:06:11;20.9;66.0
79187;SHT31;68762;51.980;5.646;2023-08-01T09:08:49;20.9;64.1
79187;SHT31;68762;51.980;5.646;2023-08-01T09:11:18;21.0;64.6
79187;SHT31;68762;51.980;5.646;2023-08-01T09:13:47;21.0;64.4
79187;SHT31;68762;51.980;5.646;2023-08-01T09:16:18;21.1;60.8
79187;SHT31;68762;51.980;5.646;2023-08-01T09:18:48;21.2;60.4
79187;SHT31;68762;51.980;5.646;2023-08-01T09:21:20;21.2;61.8
79187;SHT31;68762;51.980;5.646;2023-08-01T09:23:48;21.2;60.8
79187;SHT31;68762;51.980;5.646;2023-08-01T09:26:19;21.2;59.8
79187;SHT31;68762;51.980;5.646;2023-08-01T09:28:57;21.3;60.0
79187;SHT31;68762;51.980;5.646;2023-08-01T09:31:30;21.3;60.1
79187;SHT31;68762;51.980;5.646;2023-08-01T09:34:00;21.3;60.7
79187;SHT31;68762;51.980;5.646;2023-08-01T09:36:30;21.3;60.2
79187;SHT31;68762;51.980;5.646;2023-08-01T09:39:03;21.3;60.9
79187;SHT31;68762;51.980;5.646;2023-08-01T09:41:32;21.3;62.4
79187;SHT31;68762;51.980;5.646;2023-08-01T09:44:02;21.3;60.5
79187;SHT31;68762;51.980;5.646;2023-08-01T09:46:30;21.4;61.3
79187;SHT31;68762;51.980;5.646;2023-08-01T09:49:08;21.4;60.5
79187;SHT31;68762;51.980;5.646;2023-08-01T09:51:49;21.4;62.9
79187;SHT31;68762;51.980;5.646;2023-08-01T09:54:19;21.5;59.3
79187;SHT31;68762;51.980;5.646;2023-08-01T09:56:51;21.5;59.3
79187;SHT31;68762;51.980;5.646;2023-08-01T09:59:21;21.6;61.5
79187;SHT31;68762;51.980;5.646;2023-08-01T10:01:51;21.7;58.6
79187;SHT31;68762;51.980;5.646;2023-08-01T10:04:24;21.7;60.6
79187;SHT31;68762;51.980;5.646;2023-08-01T10:06:58;21.8;58.8
79187;SHT31;68762;51.980;5.646;2023-08-01T10:09:27;21.8;57.9
79187;SHT31;68762;51.980;5.646;2023-08-01T10:11:58;21.8;58.0
79187;SHT31;68762;51.980;5.646;2023-08-01T10:14:28;21.8;59.2
79187;SHT31;68762;51.980;5.646;2023-08-01T10:16:58;21.8;59.2
79187;SHT31;68762;51.980;5.646;2023-08-01T10:19:26;21.9;57.4
79187;SHT31;68762;51.980;5.646;2023-08-01T10:21:56;21.9;57.5
79187;SHT31;68762;51.980;5.646;2023-08-01T10:24:26;21.9;57.7
79187;SHT31;68762;51.980;5.646;2023-08-01T10:26:56;21.9;55.9
79187;SHT31;68762;51.980;5.646;2023-08-01T10:29:36;21.9;56.0
79187;SHT31;68762;51.980;5.646;2023-08-01T10:32:07;21.9;57.0
79187;SHT31;68762;51.980;5.646;2023-08-01T10:34:36;21.9;56.4
79187;SHT31;68762;51.980;5.646;2023-08-01T10:37:04;21.9;58.0
79187;SHT31;68762;51.980;5.646;2023-08-01T10:39:33;21.9;57.5
79187;SHT31;68762;51.980;5.646;2023-08-01T10:42:03;22.0;56.1
79187;SHT31;68762;51.980;5.646;2023-08-01T10:44:33;22.0;55.7
79187;SHT31;68762;51.980;5.646;2023-08-01T10:47:04;22.0;56.0
79187;SHT31;68762;51.980;5.646;2023-08-01T10:49:38;22.0;58.2
79187;SHT31;68762;51.980;5.646;2023-08-01T10:52:18;22.0;57.1
79187;SHT31;68762;51.980;5.646;2023-08-01T10:54:58;22.1;57.2
79187;SHT31;68762;51.980;5.646;2023-08-01T10:57:29;22.1;57.5
79187;SHT31;68762;51.980;5.646;2023-08-01T10:59:58;22.2;55.6
79187;SHT31;68762;51.980;5.646;2023-08-01T11:02:28;22.2;54.8
79187;SHT31;68762;51.980;5.646;2023-08-01T11:05:02;22.3;54.7
79187;SHT31;68762;51.980;5.646;2023-08-01T11:07:32;22.3;53.8
79187;SHT31;68762;51.980;5.646;2023-08-01T11:10:08;22.4;52.6
79187;SHT31;68762;51.980;5.646;2023-08-01T11:12:39;22.4;52.0
79187;SHT31;68762;51.980;5.646;2023-08-01T11:15:10;22.5;52.7
79187;SHT31;68762;51.980;5.646;2023-08-01T11:17:41;22.5;51.5
79187;SHT31;68762;51.980;5.646;2023-08-01T11:20:11;22.5;50.9
79187;SHT31;68762;51.980;5.646;2023-08-01T11:22:50;22.5;51.8
79187;SHT31;68762;51.980;5.646;2023-08-01T11:25:21;22.5;51.3
79187;SHT31;68762;51.980;5.646;2023-08-01T11:27:53;22.5;52.9
79187;SHT31;68762;51.980;5.646;2023-08-01T11:30:31;22.5;53.3
79187;SHT31;68762;51.980;5.646;2023-08-01T11:33:00;22.5;53.0
79187;SHT31;68762;51.980;5.646;2023-08-01T11:35:30;22.5;53.7
79187;SHT31;68762;51.980;5.646;2023-08-01T11:37:59;22.5;52.3
79187;SHT31;68762;51.980;5.646;2023-08-01T11:40:30;22.5;53.8
79187;SHT31;68762;51.980;5.646;2023-08-01T11:42:59;22.5;52.9
79187;SHT31;68762;51.980;5.646;2023-08-01T11:45:28;22.5;54.3
79187;SHT31;68762;51.980;5.646;2023-08-01T11:47:56;22.5;55.6
79187;SHT31;68762;51.980;5.646;2023-08-01T11:50:26;22.6;55.6
79187;SHT31;68762;51.980;5.646;2023-08-01T11:52:54;22.7;55.7
79187;SHT31;68762;51.980;5.646;2023-08-01T11:55:26;22.8;53.1
79187;SHT31;68762;51.980;5.646;2023-08-01T11:57:58;22.9;53.2
79187;SHT31;68762;51.980;5.646;2023-08-01T12:00:28;22.9;53.5
79187;SHT31;68762;51.980;5.646;2023-08-01T12:03:08;22.9;53.5
79187;SHT31;68762;51.980;5.646;2023-08-01T12:05:41;23.0;52.8
79187;SHT31;68762;51.980;5.646;2023-08-01T12:08:14;22.9;53.5
79187;SHT31;68762;51.980;5.646;2023-08-01T12:10:45;22.9;54.5
79187;SHT31;68762;51.980;5.646;2023-08-01T12:13:24;22.8;54.8
79187;SHT31;68762;51.980;5.646;2023-08-01T12:15:55;22.7;54.5
79187;SHT31;68762;51.980;5.646;2023-08-01T12:18:26;22.6;55.6
79187;SHT31;68762;51.980;5.646;2023-08-01T12:20:55;22.6;56.0
79187;SHT31;68762;51.980;5.646;2023-08-01T12:23:24;22.5;56.0
79187;SHT31;68762;51.980;5.646;2023-08-01T12:25:52;22.5;55.6
79187;SHT31;68762;51.980;5.646;2023-08-01T12:28:21;22.5;54.1
79187;SHT31;68762;51.980;5.646;2023-08-01T12:30:49;22.4;53.1
79187;SHT31;68762;51.980;5.646;2023-08-01T12:33:18;22.4;54.0
79187;SHT31;68762;51.980;5.646;2023-08-01T12:35:48;22.3;52.9
79187;SHT31;68762;51.980;5.646;2023-08-01T12:38:16;22.3;54.1
79187;SHT31;68762;51.980;5.646;2023-08-01T12:40:45;22.3;54.6
79187;SHT31;68762;51.980;5.646;2023-08-01T12:43:13;22.3;54.7
79187;SHT31;68762;51.980;5.646;2023-08-01T12:45:43;22.3;55.1
79187;SHT31;68762;51.980;5.646;2023-08-01T12:48:12;22.2;54.8
79187;SHT31;68762;51.980;5.646;2023-08-01T12:50:43;22.2;54.7
79187;SHT31;68762;51.980;5.646;2023-08-01T12:53:11;22.2;54.8
79187;SHT31;68762;51.980;5.646;2023-08-01T12:55:43;22.2;56.0
79187;SHT31;68762;51.980;5.646;2023-08-01T12:58:12;22.3;55.8
79187;SHT31;68762;51.980;5.646;2023-08-01T13:00:42;22.4;54.6
79187;SHT31;68762;51.980;5.646;2023-08-01T13:03:11;22.4;54.5
79187;SHT31;68762;51.980;5.646;2023-08-01T13:05:41;22.5;54.6
79187;SHT31;68762;51.980;5.646;2023-08-01T13:08:10;22.6;55.4
79187;SHT31;68762;51.980;5.646;2023-08-01T13:10:38;22.7;54.0
79187;SHT31;68762;51.980;5.646;2023-08-01T13:13:07;22.8;53.8
79187;SHT31;68762;51.980;5.646;2023-08-01T13:15:36;22.9;52.7
79187;SHT31;68762;51.980;5.646;2023-08-01T13:18:07;23.0;51.8
79187;SHT31;68762;51.980;5.646;2023-08-01T13:20:35;23.0;50.2
79187;SHT31;68762;51.980;5.646;2023-08-01T13:23:04;23.1;51.2
79187;SHT31;68762;51.980;5.646;2023-08-01T13:25:32;23.1;51.3
79187;SHT31;68762;51.980;5.646;2023-08-01T13:28:01;23.1;52.2
79187;SHT31;68762;51.980;5.646;2023-08-01T13:30:30;23.2;52.4
79187;SHT31;68762;51.980;5.646;2023-08-01T13:32:59;23.2;52.2
79187;SHT31;68762;51.980;5.646;2023-08-01T13:35:27;23.2;49.9
79187;SHT31;68762;51.980;5.646;2023-08-01T13:37:56;23.2;49.4
79187;SHT31;68762;51.980;5.646;2023-08-01T13:40:24;23.2;49.7
79187;SHT31;68762;51.980;5.646;2023-08-01T13:42:53;23.2;50.5
79187;SHT31;68762;51.980;5.646;2023-08-01T13:45:21;23.2;50.7
79187;SHT31;68762;51.980;5.646;2023-08-01T13:47:50;23.1;50.9
79187;SHT31;68762;51.980;5.646;2023-08-01T13:50:18;23.1;51.7
79187;SHT31;68762;51.980;5.646;2023-08-01T13:52:47;23.1;51.2
79187;SHT31;68762;51.980;5.646;2023-08-01T13:55:15;23.0;51.1
79187;SHT31;68762;51.980;5.646;2023-08-01T13:57:45;23.0;50.5
79187;SHT31;68762;51.980;5.646;2023-08-01T14:00:14;23.0;51.3
79187;SHT31;68762;51.980;5.646;2023-08-01T14:02:42;23.0;51.4
79187;SHT31;68762;51.980;5.646;2023-08-01T14:05:11;23.0;50.4
79187;SHT31;68762;51.980;5.646;2023-08-01T14:07:40;23.0;51.0
79187;SHT31;68762;51.980;5.646;2023-08-01T14:10:08;23.0;51.1
79187;SHT31;68762;51.980;5.646;2023-08-01T14:12:37;23.0;50.8
79187;SHT31;68762;51.980;5.646;2023-08-01T14:15:07;23.1;50.3
79187;SHT31;68762;51.980;5.646;2023-08-01T14:17:38;23.1;50.7
79187;SHT31;68762;51.980;5.646;2023-08-01T14:20:07;23.2;50.3
79187;SHT31;68762;51.980;5.646;2023-08-01T14:22:36;23.3;50.3
79187;SHT31;68762;51.980;5.646;2023-08-01T14:25:06;23.4;48.5
79187;SHT31;68762;51.980;5.646;2023-08-01T14:27:35;23.4;48.6
79187;SHT31;68762;51.980;5.646;2023-08-01T14:30:04;23.5;48.0
79187;SHT31;68762;51.980;5.646;2023-08-01T14:32:37;23.5;46.6
79187;SHT31;68762;51.980;5.646;2023-08-01T14:35:06;23.5;47.0
79187;SHT31;68762;51.980;5.646;2023-08-01T14:37:36;23.5;46.8
79187;SHT31;68762;51.980;5.646;2023-08-01T14:40:05;23.5;47.4
79187;SHT31;68762;51.980;5.646;2023-08-01T14:42:33;23.4;48.1
79187;SHT31;68762;51.980;5.646;2023-08-01T14:45:02;23.3;48.5
79187;SHT31;68762;51.980;5.646;2023-08-01T14:47:31;23.2;48.9
79187;SHT31;68762;51.980;5.646;2023-08-01T14:50:01;23.1;50.0
79187;SHT31;68762;51.980;5.646;2023-08-01T14:52:29;23.1;49.8
79187;SHT31;68762;51.980;5.646;2023-08-01T14:54:58;23.0;50.5
79187;SHT31;68762;51.980;5.646;2023-08-01T14:57:26;23.0;50.3
79187;SHT31;68762;51.980;5.646;2023-08-01T14:59:55;22.9;51.2
79187;SHT31;68762;51.980;5.646;2023-08-01T15:02:24;22.9;50.8
79187;SHT31;68762;51.980;5.646;2023-08-01T15:04:53;22.8;51.2
79187;SHT31;68762;51.980;5.646;2023-08-01T15:07:23;22.8;52.2
79187;SHT31;68762;51.980;5.646;2023-08-01T15:09:52;22.8;53.1
79187;SHT31;68762;51.980;5.646;2023-08-01T15:12:22;22.8;53.1
79187;SHT31;68762;51.980;5.646;2023-08-01T15:14:54;22.8;52.3
79187;SHT31;68762;51.980;5.646;2023-08-01T15:17:24;22.9;52.2
79187;SHT31;68762;51.980;5.646;2023-08-01T15:19:53;22.9;50.7
79187;SHT31;68762;51.980;5.646;2023-08-01T15:22:23;23.0;50.4
79187;SHT31;68762;51.980;5.646;2023-08-01T15:24:52;23.0;50.5
79187;SHT31;68762;51.980;5.646;2023-08-01T15:27:20;23.0;50.1
79187;SHT31;68762;51.980;5.646;2023-08-01T15:29:49;23.1;49.5
79187;SHT31;68762;51.980;5.646;2023-08-01T15:32:17;23.1;49.8
79187;SHT31;68762;51.980;5.646;2023-08-01T15:34:46;23.1;50.1
79187;SHT31;68762;51.980;5.646;2023-08-01T15:37:15;23.0;50.3
79187;SHT31;68762;51.980;5.646;2023-08-01T15:39:44;23.0;51.2
79187;SHT31;68762;51.980;5.646;2023-08-01T15:42:12;22.9;51.0
79187;SHT31;68762;51.980;5.646;2023-08-01T15:44:41;22.9;52.0
79187;SHT31;68762;51.980;5.646;2023-08-01T15:47:09;22.8;53.8
79187;SHT31;68762;51.980;5.646;2023-08-01T15:49:38;22.7;53.6
79187;SHT31;68762;51.980;5.646;2023-08-01T15:52:07;22.6;53.4
79187;SHT31;68762;51.980;5.646;2023-08-01T15:54:35;22.6;52.5
79187;SHT31;68762;51.980;5.646;2023-08-01T15:57:04;22.5;52.6
79187;SHT31;68762;51.980;5.646;2023-08-01T15:59:33;22.4;53.4
79187;SHT31;68762;51.980;5.646;2023-08-01T16:02:01;22.4;53.5
79187;SHT31;68762;51.980;5.646;2023-08-01T16:04:30;22.3;54.4
79187;SHT31;68762;51.980;5.646;2023-08-01T16:06:59;22.2;57.3
79187;SHT31;68762;51.980;5.646;2023-08-01T16:09:27;22.1;58.0
79187;SHT31;68762;51.980;5.646;2023-08-01T16:11:56;22.1;57.7
79187;SHT31;68762;51.980;5.646;2023-08-01T16:14:24;21.9;58.5
79187;SHT31;68762;51.980;5.646;2023-08-01T16:16:52;21.8;59.3